createdAt,value
2022-11-15T00:00:54.335Z,10.67
2022-11-15T00:03:28.798Z,9.97
2022-11-15T00:05:55.766Z,9.53
2022-11-15T00:08:22.550Z,10.70
2022-11-15T00:11:00.936Z,9.93
2022-11-15T00:13:28.591Z,10.27
2022-11-15T00:15:59.314Z,10.00
2022-11-15T00:18:27.013Z,10.30
2022-11-15T00:20:53.703Z,10.00
2022-11-15T00:23:20.695Z,10.90
2022-11-15T00:25:47.404Z,10.03
2022-11-15T00:28:14.117Z,9.53
2022-11-15T00:30:40.838Z,9.53
2022-11-15T00:33:09.512Z,9.77
2022-11-15T00:35:36.383Z,10.70
2022-11-15T00:38:03.810Z,9.57
2022-11-15T00:40:31.069Z,10.47
2022-11-15T00:42:58.166Z,10.97
2022-11-15T00:45:25.688Z,10.77
2022-11-15T00:47:52.889Z,10.60
2022-11-15T00:50:20.410Z,10.97
2022-11-15T00:52:49.865Z,10.57
2022-11-15T00:55:18.027Z,10.47
2022-11-15T00:57:45.121Z,11.00
2022-11-15T01:00:12.427Z,11.40
2022-11-15T01:02:39.376Z,10.67
2022-11-15T01:05:06.734Z,10.17
2022-11-15T01:07:33.754Z,10.10
2022-11-15T01:10:00.873Z,10.10
2022-11-15T01:12:27.606Z,10.00
2022-11-15T01:14:54.246Z,9.50
2022-11-15T01:17:21.229Z,9.47
2022-11-15T01:19:50.049Z,9.60
2022-11-15T01:22:16.733Z,10.40
2022-11-15T01:24:43.593Z,10.20
2022-11-15T01:27:10.757Z,10.13
2022-11-15T01:29:39.926Z,9.70
2022-11-15T01:32:06.627Z,9.80
2022-11-15T01:34:33.332Z,9.40
2022-11-15T01:37:00.100Z,9.40
2022-11-15T01:39:27.552Z,9.30
2022-11-15T01:41:54.821Z,9.60
2022-11-15T01:44:30.367Z,9.43
2022-11-15T01:46:58.414Z,9.23
2022-11-15T01:49:27.468Z,9.90
2022-11-15T01:51:55.697Z,10.33
2022-11-15T01:54:23.800Z,10.53
2022-11-15T01:57:00.579Z,10.03
2022-11-15T01:59:27.508Z,9.47
2022-11-15T02:01:54.702Z,10.63
2022-11-15T02:04:26.252Z,10.87
2022-11-15T02:06:53.192Z,9.80
2022-11-15T02:09:20.140Z,11.37
2022-11-15T02:11:48.418Z,10.03
2022-11-15T02:14:18.783Z,10.03
2022-11-15T02:17:09.676Z,9.63
2022-11-15T02:20:13.948Z,9.90
2022-11-15T02:23:18.983Z,9.03
2022-11-15T02:26:08.580Z,9.70
2022-11-15T02:28:58.496Z,8.80
2022-11-15T02:31:37.651Z,8.87
2022-11-15T02:34:15.723Z,9.50
2022-11-15T02:36:57.319Z,9.20
2022-11-15T02:39:45.319Z,9.37
2022-11-15T02:42:36.126Z,9.03
2022-11-15T02:45:07.939Z,9.00
2022-11-15T02:47:46.015Z,9.50
2022-11-15T02:50:17.020Z,11.20
2022-11-15T02:52:47.475Z,10.20
2022-11-15T02:55:30.326Z,8.83
2022-11-15T02:58:07.955Z,9.23
2022-11-15T03:00:40.955Z,8.73
2022-11-15T03:03:23.529Z,9.67
2022-11-15T03:06:02.323Z,9.07
2022-11-15T03:08:50.150Z,10.20
2022-11-15T03:11:20.562Z,9.83
2022-11-15T03:13:59.249Z,10.30
2022-11-15T03:16:39.055Z,9.50
2022-11-15T03:19:12.267Z,9.23
2022-11-15T03:21:41.302Z,8.30
2022-11-15T03:24:09.410Z,8.27
2022-11-15T03:26:39.426Z,8.40
2022-11-15T03:29:12.908Z,9.13
2022-11-15T03:31:50.863Z,8.47
2022-11-15T03:34:42.902Z,8.00
2022-11-15T03:37:13.743Z,7.83
2022-11-15T03:39:40.525Z,8.27
2022-11-15T03:42:28.024Z,8.17
2022-11-15T03:45:35.422Z,7.07
2022-11-15T03:48:18.827Z,7.77
2022-11-15T03:50:47.291Z,7.30
2022-11-15T03:53:14.747Z,8.00
2022-11-15T03:55:41.480Z,7.83
2022-11-15T03:58:08.290Z,7.23
2022-11-15T04:00:35.135Z,7.73
2022-11-15T04:03:02.047Z,7.27
2022-11-15T04:05:28.929Z,6.90
2022-11-15T04:07:55.647Z,6.77
2022-11-15T04:10:22.653Z,6.50
2022-11-15T04:12:49.410Z,6.57
2022-11-15T04:15:19.607Z,6.50
2022-11-15T04:17:54.369Z,6.43
2022-11-15T04:20:43.590Z,6.17
2022-11-15T04:23:39.775Z,7.00
2022-11-15T04:26:12.279Z,6.80
2022-11-15T04:28:59.454Z,6.90
2022-11-15T04:31:26.436Z,7.20
2022-11-15T04:33:53.442Z,7.47
2022-11-15T04:36:41.151Z,6.90
2022-11-15T04:39:08.276Z,7.50
2022-11-15T04:41:35.071Z,7.13
2022-11-15T04:44:04.414Z,6.80
2022-11-15T04:46:31.156Z,7.30
2022-11-15T04:48:59.194Z,7.20
2022-11-15T04:51:26.461Z,6.83
2022-11-15T04:53:53.177Z,7.20
2022-11-15T04:56:21.397Z,7.70
2022-11-15T04:58:50.597Z,7.17
2022-11-15T05:01:17.779Z,8.10
2022-11-15T05:04:03.961Z,8.77
2022-11-15T05:06:31.076Z,9.37
2022-11-15T05:08:57.868Z,10.43
2022-11-15T05:11:24.693Z,12.30
2022-11-15T05:13:51.719Z,15.00
2022-11-15T05:16:21.206Z,14.23
2022-11-15T05:18:47.992Z,13.40
2022-11-15T05:21:16.018Z,14.07
2022-11-15T05:23:43.219Z,12.70
2022-11-15T05:26:11.193Z,11.07
2022-11-15T05:28:38.488Z,8.97
2022-11-15T05:31:10.701Z,8.57
2022-11-15T05:33:39.670Z,8.53
2022-11-15T05:36:36.464Z,8.10
2022-11-15T05:39:04.447Z,8.43
2022-11-15T05:41:39.199Z,9.27
2022-11-15T05:44:10.073Z,8.53
2022-11-15T05:46:41.912Z,8.40
2022-11-15T05:49:11.884Z,9.10
2022-11-15T05:51:39.123Z,9.97
2022-11-15T05:54:05.991Z,9.43
2022-11-15T05:56:32.890Z,11.37
2022-11-15T05:59:00.230Z,10.07
2022-11-15T06:01:28.089Z,9.23
2022-11-15T06:03:54.939Z,9.40
2022-11-15T06:06:24.212Z,9.20
2022-11-15T06:08:51.136Z,9.93
2022-11-15T06:11:17.901Z,9.60
2022-11-15T06:13:44.696Z,9.67
2022-11-15T06:16:11.353Z,9.67
2022-11-15T06:18:38.921Z,9.40
2022-11-15T06:21:06.357Z,10.20
2022-11-15T06:23:34.632Z,9.53
2022-11-15T06:26:02.681Z,10.00
2022-11-15T06:28:30.785Z,11.50
2022-11-15T06:31:02.843Z,12.40
2022-11-15T06:33:29.889Z,11.60
2022-11-15T06:35:56.913Z,11.57
2022-11-15T06:38:23.558Z,12.83
2022-11-15T06:40:50.291Z,11.70
2022-11-15T06:43:16.995Z,11.00
2022-11-15T06:45:46.361Z,10.67
2022-11-15T06:48:13.138Z,10.83
2022-11-15T06:50:39.860Z,12.23
2022-11-15T06:53:06.602Z,11.97
2022-11-15T06:55:33.441Z,12.00
2022-11-15T06:58:00.227Z,12.90
2022-11-15T07:00:26.940Z,14.30
2022-11-15T07:02:53.629Z,14.07
2022-11-15T07:05:20.296Z,14.57
2022-11-15T07:07:53.278Z,13.63
2022-11-15T07:10:20.340Z,12.90
2022-11-15T07:12:50.222Z,11.20
2022-11-15T07:15:17.991Z,10.50
2022-11-15T07:17:44.787Z,9.90
2022-11-15T07:20:12.408Z,8.40
2022-11-15T07:22:39.092Z,10.10
2022-11-15T07:25:05.938Z,10.93
2022-11-15T07:27:32.840Z,10.77
2022-11-15T07:29:59.716Z,9.20
2022-11-15T07:32:26.669Z,8.67
2022-11-15T07:34:53.777Z,7.87
2022-11-15T07:37:20.579Z,7.10
2022-11-15T07:39:47.396Z,6.87
2022-11-15T07:42:32.495Z,6.57
2022-11-15T07:44:59.204Z,5.70
2022-11-15T07:47:25.871Z,6.17
2022-11-15T07:49:53.115Z,6.70
2022-11-15T07:52:19.783Z,8.82
2022-11-15T07:54:46.496Z,9.55
2022-11-15T07:57:13.296Z,10.35
2022-11-15T07:59:40.044Z,10.32
2022-11-15T08:02:06.845Z,10.88
2022-11-15T08:04:33.684Z,10.15
2022-11-15T08:07:00.400Z,8.23
2022-11-15T08:09:27.330Z,8.50
2022-11-15T08:11:54.034Z,8.15
2022-11-15T08:14:22.968Z,11.05
2022-11-15T08:16:49.733Z,5.70
2022-11-15T08:19:16.797Z,6.00
2022-11-15T08:21:43.553Z,4.97
2022-11-15T08:24:11.272Z,4.93
2022-11-15T08:26:38.572Z,5.28
2022-11-15T08:29:05.277Z,6.30
2022-11-15T08:31:32.092Z,4.95
2022-11-15T08:33:58.819Z,5.32
2022-11-15T08:36:25.523Z,5.47
2022-11-15T08:38:52.217Z,5.50
2022-11-15T08:41:37.746Z,6.13
2022-11-15T08:44:04.898Z,5.82
2022-11-15T08:46:31.650Z,5.80
2022-11-15T08:48:58.347Z,4.40
2022-11-15T08:51:25.087Z,4.30
2022-11-15T08:53:51.782Z,4.25
2022-11-15T08:56:18.578Z,3.80
2022-11-15T08:58:45.426Z,3.97
2022-11-15T09:01:20.935Z,4.30
2022-11-15T09:03:47.744Z,4.10
2022-11-15T09:06:14.890Z,3.85
2022-11-15T09:08:49.305Z,4.18
2022-11-15T09:11:17.536Z,4.13
2022-11-15T09:13:44.296Z,4.10
2022-11-15T09:16:12.806Z,4.07
2022-11-15T09:18:39.461Z,4.32
2022-11-15T09:21:06.199Z,3.97
2022-11-15T09:23:32.843Z,3.97
2022-11-15T09:26:02.072Z,3.97
2022-11-15T09:28:29.709Z,4.43
2022-11-15T09:31:04.650Z,4.35
2022-11-15T09:33:31.898Z,3.90
2022-11-15T09:36:03.555Z,3.90
2022-11-15T09:38:30.814Z,3.80
2022-11-15T09:41:13.011Z,3.72
2022-11-15T09:43:58.144Z,3.80
2022-11-15T09:46:33.549Z,3.60
2022-11-15T09:49:02.423Z,3.80
2022-11-15T09:51:34.222Z,3.33
2022-11-15T09:57:17.103Z,3.78
2022-11-15T10:00:30.931Z,3.38
2022-11-15T10:02:54.016Z,3.88
2022-11-15T10:05:23.851Z,3.35
2022-11-15T10:08:03.275Z,3.65
2022-11-15T10:10:42.895Z,3.78
2022-11-15T10:13:20.400Z,3.78
2022-11-15T10:15:49.359Z,4.82
2022-11-15T10:18:19.187Z,3.72
2022-11-15T10:21:03.526Z,3.80
2022-11-15T10:23:31.010Z,3.78
2022-11-15T10:26:06.393Z,4.07
2022-11-15T10:28:34.073Z,3.80
2022-11-15T10:31:05.614Z,4.00
2022-11-15T10:33:34.824Z,3.55
2022-11-15T10:36:29.488Z,3.78
2022-11-15T10:38:57.862Z,3.40
2022-11-15T10:41:32.873Z,3.60
2022-11-15T10:44:08.468Z,4.10
2022-11-15T10:46:48.872Z,4.00
2022-11-15T10:49:19.852Z,4.18
2022-11-15T10:51:59.139Z,3.78
2022-11-15T10:54:35.722Z,3.75
2022-11-15T10:57:08.325Z,3.47
2022-11-15T10:59:39.316Z,3.80
2022-11-15T11:02:57.348Z,3.70
2022-11-15T11:05:42.381Z,4.20
2022-11-15T11:08:12.322Z,3.92
2022-11-15T11:11:00.223Z,4.00
2022-11-15T11:13:37.809Z,3.60
2022-11-15T11:16:38.805Z,4.13
2022-11-15T11:19:29.849Z,3.60
2022-11-15T11:22:15.325Z,4.35
2022-11-15T11:25:05.630Z,3.28
2022-11-15T11:28:04.393Z,3.60
2022-11-15T11:30:46.801Z,3.30
2022-11-15T11:33:25.078Z,3.90
2022-11-15T11:36:09.086Z,3.47
2022-11-15T11:38:56.243Z,4.10
2022-11-15T11:41:41.114Z,3.22
2022-11-15T11:44:35.006Z,3.25
2022-11-15T11:47:40.187Z,3.90
2022-11-15T11:50:13.078Z,3.78
2022-11-15T11:53:03.670Z,3.65
2022-11-15T11:55:38.821Z,3.80
2022-11-15T11:58:20.841Z,3.60
2022-11-15T12:00:59.434Z,3.38
2022-11-15T12:03:46.735Z,3.30
2022-11-15T12:06:34.441Z,3.60
2022-11-15T12:09:39.086Z,3.95
2022-11-15T12:12:30.545Z,3.63
2022-11-15T12:15:16.766Z,3.88
2022-11-15T12:17:44.726Z,3.40
2022-11-15T12:20:27.207Z,3.60
2022-11-15T12:22:59.367Z,3.67
2022-11-15T12:25:29.762Z,3.78
2022-11-15T12:28:10.130Z,3.85
2022-11-15T12:30:49.197Z,4.00
2022-11-15T12:33:35.864Z,3.88
2022-11-15T12:36:24.571Z,3.40
2022-11-15T12:39:01.529Z,4.07
2022-11-15T12:41:29.206Z,3.60
2022-11-15T12:43:56.804Z,3.05
2022-11-15T12:46:29.202Z,3.92
2022-11-15T12:49:03.533Z,3.60
2022-11-15T12:51:47.986Z,3.67
2022-11-15T12:54:23.816Z,3.70
2022-11-15T12:57:16.744Z,3.50
2022-11-15T12:59:51.699Z,3.72
2022-11-15T13:02:22.682Z,3.60
2022-11-15T13:04:51.262Z,4.05
2022-11-15T13:07:56.170Z,3.60
2022-11-15T13:10:33.726Z,3.70
2022-11-15T13:13:10.447Z,3.65
2022-11-15T13:16:02.667Z,3.90
2022-11-15T13:18:36.946Z,3.80
2022-11-15T13:21:25.667Z,3.45
2022-11-15T13:23:56.319Z,4.00
2022-11-15T13:26:23.560Z,3.95
2022-11-15T13:28:55.567Z,3.05
2022-11-15T13:31:43.007Z,3.25
2022-11-15T13:34:50.643Z,3.58
2022-11-15T13:37:22.902Z,3.85
2022-11-15T13:39:50.786Z,3.17
2022-11-15T13:42:19.460Z,3.58
2022-11-15T13:45:05.243Z,3.10
2022-11-15T13:47:32.740Z,3.25
2022-11-15T13:50:01.811Z,3.95
2022-11-15T13:52:37.712Z,3.42
2022-11-15T13:55:18.719Z,3.47
2022-11-15T13:57:48.765Z,4.18
2022-11-15T14:00:34.827Z,3.58
2022-11-15T14:03:15.151Z,3.40
2022-11-15T14:05:41.966Z,3.53
2022-11-15T14:08:20.617Z,3.30
2022-11-15T14:10:47.280Z,3.65
2022-11-15T14:13:32.515Z,3.00
2022-11-15T14:16:32.956Z,3.10
2022-11-15T14:18:59.644Z,2.95
2022-11-15T14:21:26.479Z,3.08
2022-11-15T14:23:53.210Z,3.22
2022-11-15T14:26:34.455Z,3.13
2022-11-15T14:29:27.192Z,2.85
2022-11-15T14:31:55.115Z,2.85
2022-11-15T14:34:23.181Z,2.83
2022-11-15T14:36:49.910Z,4.37
2022-11-15T14:39:16.578Z,5.07
2022-11-15T14:41:43.242Z,5.70
2022-11-15T14:44:12.069Z,6.43
2022-11-15T14:46:38.763Z,5.50
2022-11-15T14:49:05.395Z,5.27
2022-11-15T14:51:33.858Z,6.37
2022-11-15T14:54:00.533Z,5.00
2022-11-15T14:56:27.279Z,5.43
2022-11-15T14:58:56.278Z,4.53
2022-11-15T15:01:26.134Z,4.20
2022-11-15T15:03:56.723Z,4.40
2022-11-15T15:06:23.782Z,4.10
2022-11-15T15:08:51.881Z,3.67
2022-11-15T15:11:29.046Z,4.23
2022-11-15T15:13:58.011Z,5.27
2022-11-15T15:16:28.277Z,4.80
2022-11-15T15:18:55.195Z,5.23
2022-11-15T15:21:33.592Z,5.67
2022-11-15T15:24:03.996Z,6.17
2022-11-15T15:26:30.954Z,5.80
2022-11-15T15:28:57.685Z,4.70
2022-11-15T15:31:24.405Z,4.33
2022-11-15T15:33:51.130Z,4.23
2022-11-15T15:36:20.878Z,4.93
2022-11-15T15:38:47.812Z,5.00
2022-11-15T15:41:17.964Z,5.10
2022-11-15T15:43:45.205Z,6.50
2022-11-15T15:46:17.149Z,6.60
2022-11-15T15:48:44.959Z,6.00
2022-11-15T15:51:19.605Z,5.63
2022-11-15T15:53:47.722Z,5.53
2022-11-15T15:56:14.522Z,6.23
2022-11-15T15:58:41.212Z,6.27
2022-11-15T16:01:07.996Z,6.40
2022-11-15T16:03:34.814Z,7.30
2022-11-15T16:06:02.436Z,7.40
2022-11-15T16:08:42.397Z,7.97
2022-11-15T16:11:14.731Z,6.73
2022-11-15T16:13:41.477Z,7.93
2022-11-15T16:16:13.292Z,8.43
2022-11-15T16:18:39.917Z,7.57
2022-11-15T16:21:06.635Z,7.57
2022-11-15T16:23:33.278Z,8.00
2022-11-15T16:25:59.962Z,8.67
2022-11-15T16:28:29.579Z,7.80
2022-11-15T16:31:11.257Z,9.43
2022-11-15T16:33:38.543Z,8.90
2022-11-15T16:36:07.207Z,9.30
2022-11-15T16:38:34.452Z,9.53
2022-11-15T16:41:01.360Z,13.43
2022-11-15T16:43:28.305Z,12.30
2022-11-15T16:45:55.355Z,13.00
2022-11-15T16:48:28.794Z,12.37
2022-11-15T16:50:57.395Z,13.13
2022-11-15T16:53:24.900Z,10.03
2022-11-15T16:55:51.602Z,7.73
2022-11-15T16:58:18.284Z,7.50
2022-11-15T17:00:45.046Z,6.57
2022-11-15T17:03:12.040Z,6.27
2022-11-15T17:05:38.917Z,6.20
2022-11-15T17:08:06.467Z,6.53
2022-11-15T17:10:33.184Z,6.87
2022-11-15T17:12:59.848Z,6.57
2022-11-15T17:15:26.669Z,7.53
2022-11-15T17:17:54.637Z,6.90
2022-11-15T17:20:24.222Z,6.60
2022-11-15T17:22:52.694Z,6.20
2022-11-15T17:25:19.903Z,7.23
2022-11-15T17:27:46.947Z,9.77
2022-11-15T17:30:18.765Z,10.97
2022-11-15T17:32:47.013Z,13.83
2022-11-15T17:35:15.578Z,14.40
2022-11-15T17:37:43.591Z,14.27
2022-11-15T17:40:10.910Z,13.77
2022-11-15T17:42:40.193Z,13.43
2022-11-15T17:45:10.233Z,14.17
2022-11-15T17:47:37.598Z,14.27
2022-11-15T17:50:04.608Z,15.83
2022-11-15T17:52:31.420Z,16.97
2022-11-15T17:54:58.084Z,17.20
2022-11-15T17:57:24.893Z,17.10
2022-11-15T17:59:51.602Z,21.73
2022-11-15T18:02:19.407Z,27.50
2022-11-15T18:04:46.163Z,35.60
2022-11-15T18:07:14.127Z,31.57
2022-11-15T18:09:43.843Z,29.07
2022-11-15T18:12:11.766Z,24.20
2022-11-15T18:14:38.731Z,20.80
2022-11-15T18:17:05.552Z,14.37
2022-11-15T18:19:32.280Z,13.20
2022-11-15T18:22:00.816Z,15.80
2022-11-15T18:24:42.836Z,15.67
2022-11-15T18:27:09.798Z,13.03
2022-11-15T18:29:37.928Z,11.70
2022-11-15T18:32:11.447Z,12.83
2022-11-15T18:34:39.505Z,11.87
2022-11-15T18:37:06.571Z,13.37
2022-11-15T18:39:33.426Z,12.87
2022-11-15T18:42:00.440Z,14.00
2022-11-15T18:44:30.093Z,13.73
2022-11-15T18:46:57.407Z,14.20
2022-11-15T18:49:24.184Z,15.17
2022-11-15T18:51:50.915Z,19.00
2022-11-15T18:54:18.378Z,24.47
2022-11-15T18:56:46.050Z,22.00
2022-11-15T18:59:15.063Z,18.77
2022-11-15T19:01:46.760Z,18.37
2022-11-15T19:04:17.540Z,18.30
2022-11-15T19:06:46.654Z,18.80
2022-11-15T19:09:16.017Z,20.67
2022-11-15T19:11:44.113Z,19.67
2022-11-15T19:14:12.971Z,18.37
2022-11-15T19:16:44.929Z,17.80
2022-11-15T19:19:16.784Z,15.93
2022-11-15T19:21:44.191Z,15.77
2022-11-15T19:24:11.164Z,15.17
2022-11-15T19:26:38.284Z,15.17
2022-11-15T19:29:07.464Z,18.67
2022-11-15T19:31:34.747Z,18.23
2022-11-15T19:34:06.411Z,18.43
2022-11-15T19:36:38.949Z,18.33
2022-11-15T19:39:09.696Z,17.90
2022-11-15T19:41:38.711Z,19.00
2022-11-15T19:44:06.848Z,18.57
2022-11-15T19:46:34.368Z,17.57
2022-11-15T19:49:01.608Z,17.13
2022-11-15T19:51:31.244Z,15.70
2022-11-15T19:54:06.452Z,15.90
2022-11-15T19:56:34.511Z,16.93
2022-11-15T19:59:02.200Z,16.23
2022-11-15T20:01:31.798Z,13.30
2022-11-15T20:03:59.755Z,14.07
2022-11-15T20:06:29.659Z,13.23
2022-11-15T20:08:57.132Z,13.87
2022-11-15T20:11:24.442Z,14.07
2022-11-15T20:13:51.612Z,13.87
2022-11-15T20:16:21.164Z,13.97
2022-11-15T20:18:50.063Z,14.07
2022-11-15T20:21:17.834Z,14.57
2022-11-15T20:23:45.720Z,13.20
2022-11-15T20:26:14.673Z,13.07
2022-11-15T20:28:41.664Z,12.30
2022-11-15T20:31:09.635Z,11.60
2022-11-15T20:33:39.140Z,10.53
2022-11-15T20:36:07.841Z,10.33
2022-11-15T20:38:34.941Z,10.80
2022-11-15T20:41:01.911Z,10.63
2022-11-15T20:43:28.888Z,11.00
2022-11-15T20:45:55.819Z,10.67
2022-11-15T20:48:22.900Z,12.77
2022-11-15T20:50:49.858Z,13.17
2022-11-15T20:53:19.589Z,11.83
2022-11-15T20:55:48.729Z,11.93
2022-11-15T20:58:17.484Z,10.40
2022-11-15T21:00:51.286Z,10.80
2022-11-15T21:03:21.922Z,10.70
2022-11-15T21:05:48.642Z,10.50
2022-11-15T21:08:15.459Z,10.70
2022-11-15T21:11:00.604Z,9.97
2022-11-15T21:13:27.358Z,12.13
2022-11-15T21:15:57.913Z,10.60
2022-11-15T21:18:25.175Z,11.57
2022-11-15T21:20:53.641Z,10.67
2022-11-15T21:23:20.983Z,10.63
2022-11-15T21:25:51.551Z,10.13
2022-11-15T21:28:18.479Z,9.57
2022-11-15T21:30:56.147Z,10.63
2022-11-15T21:33:23.911Z,10.03
2022-11-15T21:35:51.564Z,10.10
2022-11-15T21:38:18.379Z,10.20
2022-11-15T21:40:45.088Z,9.83
2022-11-15T21:43:11.798Z,10.40
2022-11-15T21:45:38.819Z,12.47
2022-11-15T21:48:06.039Z,14.87
2022-11-15T21:50:32.764Z,13.27
2022-11-15T21:52:59.569Z,13.47
2022-11-15T21:55:26.448Z,15.77
2022-11-15T21:57:53.112Z,20.07
2022-11-15T22:00:38.402Z,21.37
2022-11-15T22:03:05.134Z,20.80
2022-11-15T22:05:31.819Z,20.23
2022-11-15T22:07:58.505Z,20.00
2022-11-15T22:10:25.156Z,18.27
2022-11-15T22:12:51.818Z,19.17
2022-11-15T22:15:18.501Z,20.67
2022-11-15T22:18:00.322Z,22.70
2022-11-15T22:20:44.070Z,21.03
2022-11-15T22:23:11.736Z,16.70
2022-11-15T22:25:38.435Z,15.13
2022-11-15T22:28:05.274Z,15.73
2022-11-15T22:30:32.020Z,14.13
2022-11-15T22:32:58.720Z,14.00
2022-11-15T22:35:25.437Z,14.47
2022-11-15T22:37:52.769Z,13.97
2022-11-15T22:40:19.644Z,14.43
2022-11-15T22:42:46.306Z,13.83
2022-11-15T22:45:13.032Z,13.50
2022-11-15T22:47:39.709Z,13.57
2022-11-15T22:50:06.947Z,14.40
2022-11-15T22:52:33.651Z,13.33
2022-11-15T22:55:00.336Z,12.90
2022-11-15T22:57:27.026Z,13.90
2022-11-15T22:59:53.878Z,14.13
2022-11-15T23:02:20.572Z,14.60
2022-11-15T23:04:47.748Z,14.87
2022-11-15T23:07:14.652Z,14.53
2022-11-15T23:09:41.375Z,14.97
2022-11-15T23:12:29.812Z,13.93
2022-11-15T23:14:56.712Z,15.67
2022-11-15T23:17:23.611Z,13.60
2022-11-15T23:19:50.287Z,12.60
2022-11-15T23:22:35.614Z,13.43
2022-11-15T23:25:02.274Z,12.70
2022-11-15T23:27:28.962Z,13.03
2022-11-15T23:30:14.438Z,12.80
2022-11-15T23:32:59.752Z,12.80
2022-11-15T23:35:27.745Z,12.27
2022-11-15T23:37:54.398Z,12.83
2022-11-15T23:40:21.185Z,12.73
2022-11-15T23:42:47.915Z,12.80
2022-11-15T23:45:14.592Z,12.07
2022-11-15T23:47:41.259Z,12.30
2022-11-15T23:50:08.289Z,11.80
2022-11-15T23:52:35.013Z,11.37
2022-11-15T23:55:01.789Z,12.10
2022-11-15T23:57:28.483Z,11.33
2022-11-15T23:59:55.158Z,11.07
